Time;durP1;ratioP1;P1;durP2;ratioP2;P2;SDS_P1;SDS_P2;PMS_P1;PMS_P2;Temp;Humidity;BMP_temperature;BMP_pressure;BME280_temperature;BME280_humidity;BME280_pressure;Samples;Min_cycle;Max_cycle;Signal;HPM_P1;HPM_P2
2023/06/14 00:01:58;;;;;;;8.02;3.50;;;20.50;56.10;;;;;;5118984;27;45502;-69
2023/06/14 00:04:25;;;;;;;8.55;3.63;;;20.40;56.10;;;;;;5117684;27;45548;-68
2023/06/14 00:06:52;;;;;;;10.20;3.78;;;20.50;55.90;;;;;;5112596;27;47322;-69
2023/06/14 00:09:19;;;;;;;5.60;3.60;;;20.50;54.70;;;;;;5115158;27;45351;-69
2023/06/14 00:11:46;;;;;;;12.73;3.80;;;20.50;54.70;;;;;;5112715;27;45413;-68
2023/06/14 00:14:14;;;;;;;6.97;3.47;;;20.50;54.80;;;;;;5119076;27;45788;-67
2023/06/14 00:16:42;;;;;;;5.55;3.80;;;20.50;55.40;;;;;;5116384;27;45489;-68
2023/06/14 00:19:10;;;;;;;5.18;3.78;;;20.50;56.70;;;;;;5111776;27;45397;-68
2023/06/14 00:21:37;;;;;;;8.38;3.80;;;20.50;56.20;;;;;;5117460;27;45273;-67
2023/06/14 00:24:05;;;;;;;6.97;3.92;;;20.50;56.60;;;;;;5117620;27;45573;-67
2023/06/14 00:26:32;;;;;;;10.90;4.22;;;20.40;56.10;;;;;;5103784;27;46592;-67
2023/06/14 00:28:58;;;;;;;8.38;3.83;;;20.40;56.60;;;;;;5111696;27;45486;-67
2023/06/14 00:31:27;;;;;;;6.32;4.00;;;20.40;54.80;;;;;;5110316;27;45478;-67
2023/06/14 00:33:53;;;;;;;5.22;3.65;;;20.40;55.70;;;;;;5109964;27;45546;-68
2023/06/14 00:36:20;;;;;;;9.50;3.92;;;20.40;56.90;;;;;;5117185;27;46320;-67
2023/06/14 00:38:47;;;;;;;7.78;3.78;;;20.40;56.90;;;;;;5116411;27;45266;-67
2023/06/14 00:41:14;;;;;;;7.93;3.90;;;20.30;57.40;;;;;;5123296;27;45285;-67
2023/06/14 00:43:41;;;;;;;6.07;3.83;;;20.30;57.00;;;;;;5110637;27;45455;-67
2023/06/14 00:46:07;;;;;;;6.45;4.10;;;20.10;58.60;;;;;;5120548;27;47676;-68
2023/06/14 00:48:37;;;;;;;9.32;4.32;;;20.10;57.70;;;;;;5117578;27;45304;-67
2023/06/14 00:51:04;;;;;;;5.90;3.50;;;20.20;57.40;;;;;;5122304;27;45394;-68
2023/06/14 00:53:33;;;;;;;5.75;3.47;;;20.20;57.20;;;;;;5117965;27;45506;-67
2023/06/14 00:56:01;;;;;;;7.72;3.72;;;20.20;57.70;;;;;;5113349;27;47332;-67
2023/06/14 00:58:28;;;;;;;7.93;3.53;;;20.20;58.20;;;;;;5109216;27;45369;-65
2023/06/14 01:00:55;;;;;;;11.00;4.28;;;19.30;56.70;;;;;;5111612;27;45713;-66
2023/06/14 01:03:23;;;;;;;8.02;4.05;;;18.90;57.80;;;;;;5109043;27;45581;-67
2023/06/14 01:05:58;;;;;;;7.65;3.47;;;18.70;57.80;;;;;;5115717;27;45365;-67
2023/06/14 01:08:32;;;;;;;5.68;3.58;;;18.60;58.00;;;;;;5113605;27;45396;-66
2023/06/14 01:11:06;;;;;;;9.98;3.92;;;18.50;59.00;;;;;;5102502;27;45367;-66
2023/06/14 01:13:35;;;;;;;11.82;4.50;;;18.40;59.40;;;;;;5114122;27;45350;-66
2023/06/14 01:16:03;;;;;;;5.38;3.88;;;18.30;59.60;;;;;;5118524;27;47696;-66
2023/06/14 01:18:31;;;;;;;6.40;3.75;;;18.30;60.20;;;;;;5115857;27;45398;-67
2023/06/14 01:20:59;;;;;;;7.50;3.75;;;18.20;60.00;;;;;;5126363;27;45374;-66
2023/06/14 01:23:32;;;;;;;6.68;3.78;;;17.70;62.00;;;;;;5122417;27;45696;-66
2023/06/14 01:26:02;;;;;;;6.47;3.72;;;17.70;61.70;;;;;;5105612;27;48888;-66
2023/06/14 01:28:33;;;;;;;10.80;4.80;;;17.70;62.20;;;;;;5127156;27;45328;-66
2023/06/14 01:31:03;;;;;;;6.43;4.07;;;17.80;61.10;;;;;;5126392;27;45494;-66
2023/06/14 01:33:33;;;;;;;7.38;3.78;;;17.70;62.00;;;;;;5115571;27;45645;-67
2023/06/14 01:36:02;;;;;;;9.80;4.05;;;17.70;63.10;;;;;;5125594;27;45349;-66
2023/06/14 01:38:31;;;;;;;10.70;3.80;;;17.80;61.60;;;;;;5122340;27;45351;-66
2023/06/14 01:41:01;;;;;;;7.18;3.97;;;18.00;60.60;;;;;;5108954;27;45289;-66
2023/06/14 01:43:31;;;;;;;8.70;4.10;;;18.20;60.20;;;;;;5125164;27;45703;-65
2023/06/14 01:45:59;;;;;;;7.30;4.15;;;18.30;60.10;;;;;;5124639;27;45438;-65
2023/06/14 01:48:27;;;;;;;7.85;4.15;;;18.30;60.00;;;;;;5106405;27;45763;-66
2023/06/14 01:50:54;;;;;;;9.70;4.30;;;18.20;60.00;;;;;;5117625;27;45383;-66
2023/06/14 01:53:21;;;;;;;8.95;3.70;;;18.20;60.10;;;;;;5116713;27;45521;-66
2023/06/14 01:55:49;;;;;;;5.80;4.20;;;18.20;60.30;;;;;;5118526;27;45436;-66
2023/06/14 01:58:17;;;;;;;8.23;4.00;;;18.20;60.30;;;;;;5118421;27;45447;-66
2023/06/14 02:00:45;;;;;;;9.23;4.75;;;18.10;60.80;;;;;;5125544;27;45542;-66
2023/06/14 02:03:12;;;;;;;8.60;4.10;;;18.00;61.00;;;;;;5115224;27;45256;-67
2023/06/14 02:05:39;;;;;;;7.50;4.30;;;18.00;61.10;;;;;;5120721;27;47084;-66
2023/06/14 02:08:07;;;;;;;7.38;4.18;;;17.80;61.80;;;;;;5121565;27;45483;-66
2023/06/14 02:10:33;;;;;;;8.60;4.28;;;17.90;61.60;;;;;;5113258;27;45620;-66
2023/06/14 02:13:02;;;;;;;7.78;3.92;;;17.90;61.90;;;;;;5123762;27;45238;-66
2023/06/14 02:15:33;;;;;;;9.38;3.92;;;17.80;61.70;;;;;;5116853;27;47586;-66
2023/06/14 02:18:01;;;;;;;8.65;4.40;;;17.90;61.90;;;;;;5125131;27;45448;-66
2023/06/14 02:20:28;;;;;;;6.97;3.95;;;17.90;62.00;;;;;;5126780;27;45624;-67
2023/06/14 02:22:55;;;;;;;12.30;4.13;;;18.00;62.10;;;;;;5123620;27;45565;-66
2023/06/14 02:25:22;;;;;;;11.73;4.30;;;17.90;62.50;;;;;;5124466;27;48145;-66
2023/06/14 02:27:48;;;;;;;8.10;4.43;;;17.80;62.00;;;;;;5114845;27;45354;-67
2023/06/14 02:30:17;;;;;;;9.55;3.95;;;17.70;62.60;;;;;;5121418;27;45431;-66
2023/06/14 02:32:44;;;;;;;8.82;3.85;;;17.70;62.80;;;;;;5116060;27;45238;-66
2023/06/14 02:35:11;;;;;;;7.28;4.50;;;17.80;62.70;;;;;;5119668;27;46461;-66
2023/06/14 02:37:37;;;;;;;8.85;4.50;;;17.70;63.10;;;;;;5119971;27;45352;-66
2023/06/14 02:40:05;;;;;;;8.98;4.40;;;17.70;63.10;;;;;;5120532;27;45361;-66
2023/06/14 02:42:32;;;;;;;13.43;4.75;;;17.60;63.60;;;;;;5114934;27;45287;-66
2023/06/14 02:45:00;;;;;;;8.10;4.40;;;17.60;63.50;;;;;;5124560;27;46277;-66
2023/06/14 02:47:28;;;;;;;8.32;4.07;;;17.60;63.50;;;;;;5124128;27;45325;-66
2023/06/14 02:49:55;;;;;;;9.80;4.00;;;17.60;63.60;;;;;;5125547;27;45351;-67
2023/06/14 02:52:21;;;;;;;9.20;3.83;;;17.50;64.00;;;;;;5120258;27;45517;-66
2023/06/14 02:54:48;;;;;;;7.30;4.13;;;17.50;64.70;;;;;;5104163;27;46589;-66
2023/06/14 02:57:16;;;;;;;7.53;4.00;;;17.40;65.60;;;;;;5118126;27;45367;-67
2023/06/14 02:59:42;;;;;;;8.38;4.55;;;17.20;65.70;;;;;;5112796;27;45433;-66
2023/06/14 03:02:09;;;;;;;8.13;4.40;;;17.10;67.00;;;;;;5120437;27;45480;-66
2023/06/14 03:04:38;;;;;;;9.07;4.25;;;17.10;67.50;;;;;;5107861;27;46100;-66
2023/06/14 03:07:09;;;;;;;9.27;3.90;;;16.80;68.00;;;;;;5116052;27;45429;-68
2023/06/14 03:09:36;;;;;;;5.25;3.60;;;16.80;68.70;;;;;;5104458;27;45297;-66
2023/06/14 03:12:04;;;;;;;11.60;5.32;;;16.70;69.20;;;;;;5110781;27;45415;-66
2023/06/14 03:14:31;;;;;;;9.32;4.45;;;16.60;69.80;;;;;;5120617;27;47162;-66
2023/06/14 03:16:58;;;;;;;7.40;4.55;;;16.60;70.20;;;;;;5115572;27;45484;-66
2023/06/14 03:19:25;;;;;;;9.85;4.80;;;16.70;68.50;;;;;;5124419;27;45384;-66
2023/06/14 03:21:56;;;;;;;11.57;3.90;;;16.90;67.30;;;;;;5123574;27;45717;-66
2023/06/14 03:24:23;;;;;;;14.48;4.40;;;17.10;66.00;;;;;;5122086;27;47816;-66
2023/06/14 03:26:50;;;;;;;7.18;4.05;;;17.20;66.50;;;;;;5103873;27;45374;-66
2023/06/14 03:29:17;;;;;;;7.07;4.28;;;17.20;65.40;;;;;;5122009;27;45278;-66
2023/06/14 03:31:58;;;;;;;6.93;4.18;;;17.20;65.90;;;;;;5123342;27;45537;-66
2023/06/14 03:34:25;;;;;;;10.55;4.40;;;17.10;65.70;;;;;;5123854;27;45495;-66
2023/06/14 03:36:54;;;;;;;13.65;4.00;;;17.10;65.80;;;;;;5109829;27;45245;-67
2023/06/14 03:39:21;;;;;;;11.10;4.30;;;17.10;65.70;;;;;;5116615;27;45494;-66
2023/06/14 03:41:48;;;;;;;10.45;3.92;;;17.20;64.90;;;;;;5121568;27;45487;-66
2023/06/14 03:44:16;;;;;;;11.10;4.45;;;17.30;65.00;;;;;;5122921;27;45496;-66
2023/06/14 03:46:43;;;;;;;10.63;4.22;;;17.30;65.10;;;;;;5103144;27;45296;-66
2023/06/14 03:49:10;;;;;;;7.60;4.32;;;17.30;64.70;;;;;;5113261;27;45249;-66
2023/06/14 03:51:37;;;;;;;11.73;4.47;;;17.30;65.00;;;;;;5112535;27;45327;-67
2023/06/14 03:54:06;;;;;;;10.25;4.60;;;17.30;65.40;;;;;;5123001;27;46595;-67
2023/06/14 03:56:32;;;;;;;11.85;4.68;;;17.20;65.30;;;;;;5114671;27;45271;-68
2023/06/14 03:58:59;;;;;;;8.35;4.30;;;17.30;65.20;;;;;;5122874;27;45209;-67
2023/06/14 04:01:29;;;;;;;8.90;4.27;;;17.40;65.10;;;;;;5119156;27;45552;-67
2023/06/14 04:03:56;;;;;;;10.13;4.03;;;17.40;65.20;;;;;;5119198;27;46433;-67
2023/06/14 04:06:24;;;;;;;9.27;4.70;;;17.40;65.40;;;;;;5122480;27;45573;-67
2023/06/14 04:08:51;;;;;;;6.47;4.17;;;17.50;65.40;;;;;;5121366;27;45362;-67
2023/06/14 04:11:20;;;;;;;7.82;4.50;;;17.50;65.40;;;;;;5111550;27;45391;-66
2023/06/14 04:13:47;;;;;;;7.45;4.50;;;17.40;65.60;;;;;;5119302;27;46580;-66
2023/06/14 04:16:14;;;;;;;10.30;4.65;;;17.40;65.90;;;;;;5121687;27;45510;-67
2023/06/14 04:18:40;;;;;;;7.82;3.97;;;17.50;65.70;;;;;;5112885;27;45201;-67
2023/06/14 04:21:08;;;;;;;8.02;3.78;;;18.30;65.10;;;;;;5113947;27;45549;-67
2023/06/14 04:23:35;;;;;;;8.43;3.83;;;19.10;62.90;;;;;;5115024;27;45340;-67
2023/06/14 04:26:02;;;;;;;8.88;3.45;;;19.60;60.70;;;;;;5123493;27;45382;-67
2023/06/14 04:28:30;;;;;;;5.05;3.08;;;20.00;60.70;;;;;;5103624;27;45259;-68
2023/06/14 04:30:57;;;;;;;6.80;3.65;;;20.30;60.00;;;;;;5118316;27;45430;-68
2023/06/14 04:33:25;;;;;;;4.25;3.13;;;20.50;58.90;;;;;;5117260;27;45322;-68
2023/06/14 04:35:53;;;;;;;10.88;4.43;;;20.60;58.60;;;;;;5112091;27;45373;-67
2023/06/14 04:38:23;;;;;;;10.43;4.45;;;20.40;57.80;;;;;;5122251;27;45344;-67
2023/06/14 04:40:52;;;;;;;10.80;4.57;;;20.10;58.60;;;;;;5116221;27;45606;-67
2023/06/14 04:43:25;;;;;;;9.80;4.47;;;19.60;60.40;;;;;;5116263;27;45287;-67
2023/06/14 04:45:56;;;;;;;9.20;4.10;;;19.70;60.70;;;;;;5115751;27;45501;-67
2023/06/14 04:48:23;;;;;;;14.75;4.53;;;19.90;61.10;;;;;;5120545;27;45354;-67
2023/06/14 04:50:52;;;;;;;15.38;4.55;;;19.90;59.20;;;;;;5119902;27;45422;-67
2023/06/14 04:53:21;;;;;;;12.68;4.35;;;19.90;60.10;;;;;;5116290;27;48190;-67
2023/06/14 04:55:48;;;;;;;10.68;4.65;;;20.00;59.70;;;;;;5111045;27;45776;-68
2023/06/14 04:58:15;;;;;;;7.68;3.92;;;19.90;60.30;;;;;;5118020;27;45701;-67
2023/06/14 05:00:43;;;;;;;10.10;4.63;;;19.90;60.10;;;;;;5122710;27;45684;-68
2023/06/14 05:03:12;;;;;;;9.32;4.45;;;19.80;60.00;;;;;;5113352;27;46226;-67
2023/06/14 05:05:40;;;;;;;11.77;4.35;;;19.70;61.10;;;;;;5118118;27;45550;-67
2023/06/14 05:08:07;;;;;;;9.80;3.83;;;19.70;61.50;;;;;;5118253;27;45467;-68
2023/06/14 05:10:34;;;;;;;10.82;4.40;;;19.80;61.30;;;;;;5126672;27;45235;-68
2023/06/14 05:13:01;;;;;;;18.27;4.95;;;19.60;62.00;;;;;;5116880;27;47573;-67
2023/06/14 05:15:28;;;;;;;11.80;4.60;;;19.40;62.80;;;;;;5123878;27;45445;-67
2023/06/14 05:17:56;;;;;;;12.63;4.70;;;19.30;62.80;;;;;;5118335;27;45465;-67
2023/06/14 05:20:26;;;;;;;14.30;4.47;;;19.40;63.00;;;;;;5117993;27;45577;-67
2023/06/14 05:22:53;;;;;;;15.45;4.90;;;19.80;62.10;;;;;;5120504;27;45445;-67
2023/06/14 05:25:20;;;;;;;10.52;3.55;;;19.90;61.90;;;;;;5114097;27;45334;-67
2023/06/14 05:27:47;;;;;;;10.77;4.15;;;20.10;62.30;;;;;;5118025;27;45429;-67
2023/06/14 05:30:15;;;;;;;9.85;4.18;;;20.50;60.90;;;;;;5124486;27;45503;-67
2023/06/14 05:32:42;;;;;;;16.58;5.05;;;20.20;61.70;;;;;;5108750;27;46727;-67
2023/06/14 05:35:09;;;;;;;10.40;4.20;;;20.10;62.20;;;;;;5124649;27;45334;-67
2023/06/14 05:37:38;;;;;;;6.78;3.50;;;19.80;63.40;;;;;;5107627;27;45277;-67
2023/06/14 05:40:06;;;;;;;7.78;3.60;;;19.90;63.60;;;;;;5116911;27;45424;-68
2023/06/14 05:42:33;;;;;;;9.52;3.80;;;20.30;61.70;;;;;;5120283;27;48221;-67
2023/06/14 05:45:00;;;;;;;9.43;3.83;;;20.50;60.80;;;;;;5115020;27;45381;-67
2023/06/14 05:47:27;;;;;;;8.98;4.13;;;20.40;58.80;;;;;;5115584;27;45296;-68
2023/06/14 05:49:55;;;;;;;6.47;3.67;;;20.20;59.50;;;;;;5123635;27;45644;-67
2023/06/14 05:52:21;;;;;;;9.02;3.53;;;20.40;61.00;;;;;;5114789;27;48407;-67
2023/06/14 05:54:50;;;;;;;7.80;3.75;;;20.50;57.00;;;;;;5106535;27;45315;-67
2023/06/14 05:57:16;;;;;;;8.55;3.58;;;20.00;58.70;;;;;;5109308;27;45395;-68
2023/06/14 05:59:43;;;;;;;4.72;2.67;;;20.00;59.10;;;;;;5117258;27;45488;-67
2023/06/14 06:02:10;;;;;;;9.63;3.22;;;20.40;61.20;;;;;;5114179;27;45314;-67
2023/06/14 06:04:37;;;;;;;3.83;2.80;;;20.60;57.40;;;;;;5119659;27;45282;-67
2023/06/14 06:07:05;;;;;;;6.13;2.83;;;20.30;58.80;;;;;;5116532;27;46305;-67
2023/06/14 06:09:31;;;;;;;3.97;2.53;;;20.30;61.30;;;;;;5124622;27;45528;-67
2023/06/14 06:12:00;;;;;;;6.43;2.60;;;20.70;60.20;;;;;;5122976;27;45237;-68
2023/06/14 06:14:27;;;;;;;3.63;2.75;;;21.00;58.70;;;;;;5118672;27;45293;-67
2023/06/14 06:16:54;;;;;;;3.00;2.30;;;21.20;59.30;;;;;;5117812;27;45530;-67
2023/06/14 06:19:21;;;;;;;3.58;2.40;;;21.30;58.80;;;;;;5116869;27;45490;-68
2023/06/14 06:21:48;;;;;;;3.63;2.38;;;21.40;59.30;;;;;;5120022;27;46231;-67
2023/06/14 06:24:15;;;;;;;12.88;3.78;;;21.40;55.60;;;;;;5118473;27;45513;-67
2023/06/14 06:26:41;;;;;;;12.10;2.88;;;21.00;53.90;;;;;;5116951;27;45318;-67
2023/06/14 06:29:10;;;;;;;7.32;3.40;;;20.70;54.90;;;;;;5123960;27;45290;-68
2023/06/14 06:31:36;;;;;;;8.13;3.17;;;20.10;56.30;;;;;;5122902;27;46259;-67
2023/06/14 06:34:03;;;;;;;3.17;2.20;;;20.20;59.90;;;;;;5124387;27;45225;-67
2023/06/14 06:36:30;;;;;;;5.30;2.92;;;20.80;59.20;;;;;;5117086;27;45381;-66
2023/06/14 06:38:57;;;;;;;12.13;2.88;;;20.90;58.40;;;;;;5122900;27;45406;-67
2023/06/14 06:41:24;;;;;;;4.18;2.78;;;21.10;54.00;;;;;;5119039;27;45280;-68
2023/06/14 06:43:50;;;;;;;13.25;3.30;;;20.80;58.60;;;;;;5119486;27;45462;-67
2023/06/14 06:46:19;;;;;;;6.18;2.67;;;21.00;54.20;;;;;;5117378;27;45289;-68
2023/06/14 06:48:46;;;;;;;6.68;2.65;;;20.90;58.50;;;;;;5112742;27;45545;-67
2023/06/14 06:51:13;;;;;;;4.22;2.22;;;21.30;58.00;;;;;;5112365;27;46983;-67
2023/06/14 06:53:40;;;;;;;3.67;2.45;;;21.50;57.70;;;;;;5117644;27;45414;-67
2023/06/14 06:56:07;;;;;;;3.83;2.35;;;21.60;57.60;;;;;;5116289;27;45660;-67
2023/06/14 06:58:34;;;;;;;6.03;2.25;;;21.50;56.20;;;;;;5123383;27;45457;-67
2023/06/14 07:01:00;;;;;;;3.80;2.30;;;21.40;53.70;;;;;;5116860;27;47367;-67
2023/06/14 07:03:29;;;;;;;4.57;2.17;;;21.50;57.20;;;;;;5106642;27;45455;-68
2023/06/14 07:05:55;;;;;;;7.32;2.35;;;21.70;57.40;;;;;;5116750;27;45640;-68
2023/06/14 07:08:22;;;;;;;4.50;2.40;;;21.70;57.30;;;;;;5122460;27;45499;-67
2023/06/14 07:10:49;;;;;;;4.50;2.58;;;21.80;56.80;;;;;;5115723;27;46562;-66
2023/06/14 07:13:16;;;;;;;6.72;2.58;;;21.70;56.50;;;;;;5114757;27;46329;-67
2023/06/14 07:15:42;;;;;;;7.07;2.50;;;21.80;56.50;;;;;;5121046;27;45478;-67
2023/06/14 07:18:09;;;;;;;6.25;1.92;;;21.80;56.00;;;;;;5119827;27;45452;-68
2023/06/14 07:20:38;;;;;;;6.25;2.33;;;21.80;56.00;;;;;;5120468;27;47315;-67
2023/06/14 07:23:05;;;;;;;4.03;2.20;;;21.80;56.20;;;;;;5113240;27;45473;-67
2023/06/14 07:25:32;;;;;;;4.90;2.58;;;21.70;55.90;;;;;;5112420;27;45296;-66
2023/06/14 07:27:59;;;;;;;2.72;2.05;;;21.70;55.90;;;;;;5116561;27;45472;-67
2023/06/14 07:30:26;;;;;;;3.85;2.15;;;21.80;56.10;;;;;;5111853;27;46580;-66
2023/06/14 07:32:54;;;;;;;4.00;2.40;;;21.80;56.00;;;;;;5121390;27;45435;-66
2023/06/14 07:35:21;;;;;;;3.38;2.00;;;21.90;56.10;;;;;;5121864;27;45503;-67
2023/06/14 07:37:49;;;;;;;2.58;2.15;;;21.80;56.00;;;;;;5117916;27;45379;-66
2023/06/14 07:40:16;;;;;;;4.60;2.10;;;21.90;56.10;;;;;;5121194;27;45452;-67
2023/06/14 07:42:43;;;;;;;7.80;2.30;;;21.90;56.10;;;;;;5118943;27;45383;-68
2023/06/14 07:45:10;;;;;;;2.60;1.80;;;21.90;56.10;;;;;;5110200;27;45260;-67
2023/06/14 07:47:37;;;;;;;2.40;1.90;;;21.90;56.10;;;;;;5115137;27;45323;-67
2023/06/14 07:50:05;;;;;;;2.95;1.88;;;21.90;56.10;;;;;;5115333;27;46385;-68
2023/06/14 07:52:31;;;;;;;3.85;1.90;;;21.90;56.10;;;;;;5115734;27;45292;-67
2023/06/14 07:55:00;;;;;;;4.22;1.90;;;21.90;49.80;;;;;;5116179;27;45288;-67
2023/06/14 07:57:26;;;;;;;2.20;1.70;;;21.90;56.10;;;;;;5122250;27;45402;-67
2023/06/14 07:59:53;;;;;;;5.35;1.42;;;21.90;56.10;;;;;;5124171;27;46317;-67
2023/06/14 08:02:20;;;;;;;2.58;1.48;;;21.90;54.00;;;;;;5115073;27;45482;-67
2023/06/14 08:04:48;;;;;;;1.98;1.52;;;21.80;54.70;;;;;;5109018;27;45317;-67
2023/06/14 08:07:15;;;;;;;3.05;1.50;;;21.90;55.60;;;;;;5115841;27;45298;-67
2023/06/14 08:09:41;;;;;;;3.53;1.30;;;21.90;55.30;;;;;;5108046;27;46150;-67
2023/06/14 08:12:10;;;;;;;13.85;2.10;;;21.80;45.20;;;;;;5116425;27;45522;-66
2023/06/14 08:14:37;;;;;;;3.70;1.67;;;21.70;47.10;;;;;;5114626;27;45356;-66
2023/06/14 08:17:04;;;;;;;5.07;1.50;;;21.70;52.20;;;;;;5123657;27;45327;-67
2023/06/14 08:19:31;;;;;;;11.10;1.90;;;21.80;47.70;;;;;;5106678;27;45260;-67
2023/06/14 08:21:58;;;;;;;5.45;1.20;;;21.70;43.30;;;;;;5110113;27;45378;-67
2023/06/14 08:24:26;;;;;;;4.20;1.20;;;21.60;42.90;;;;;;5116784;27;45269;-67
2023/06/14 08:26:53;;;;;;;4.55;1.10;;;21.80;45.70;;;;;;5122039;27;45548;-69
2023/06/14 08:29:21;;;;;;;2.03;1.40;;;21.80;48.20;;;;;;5106340;27;46368;-67
2023/06/14 08:31:48;;;;;;;3.25;1.38;;;21.90;51.90;;;;;;5123808;27;45265;-67
2023/06/14 08:34:15;;;;;;;2.05;1.38;;;21.90;46.40;;;;;;5116913;27;45345;-68
2023/06/14 08:36:42;;;;;;;2.10;1.10;;;21.90;52.90;;;;;;5114736;27;45459;-67
2023/06/14 08:39:09;;;;;;;2.13;1.42;;;21.80;48.00;;;;;;5118678;27;46353;-67
2023/06/14 08:41:37;;;;;;;0.95;0.85;;;21.90;51.80;;;;;;5117545;27;45566;-67
2023/06/14 08:44:04;;;;;;;1.33;1.02;;;21.90;51.40;;;;;;5116774;27;45260;-67
2023/06/14 08:46:34;;;;;;;1.90;1.23;;;21.90;41.70;;;;;;5123119;27;45644;-68
2023/06/14 08:49:03;;;;;;;3.78;1.58;;;22.00;50.70;;;;;;5115358;27;46493;-67
2023/06/14 08:51:34;;;;;;;1.88;1.10;;;22.00;46.10;;;;;;5113814;27;45361;-67
2023/06/14 08:54:01;;;;;;;4.90;1.15;;;22.00;50.90;;;;;;5122789;27;45261;-67
2023/06/14 08:56:29;;;;;;;2.13;1.08;;;22.00;49.40;;;;;;5114492;27;45274;-67
2023/06/14 08:59:01;;;;;;;2.92;1.13;;;22.00;51.20;;;;;;5122723;27;48380;-67
2023/06/14 09:01:28;;;;;;;1.73;1.20;;;22.00;52.00;;;;;;5122629;27;45376;-67
2023/06/14 09:03:57;;;;;;;2.42;1.08;;;22.00;51.40;;;;;;5119182;27;45383;-67
2023/06/14 09:06:24;;;;;;;2.03;1.17;;;22.00;52.40;;;;;;5114468;27;45269;-67
2023/06/14 09:08:51;;;;;;;5.93;1.08;;;22.00;51.50;;;;;;5123021;27;45323;-66
2023/06/14 09:11:20;;;;;;;1.42;1.10;;;22.00;41.30;;;;;;5121857;27;45218;-67
2023/06/14 09:13:47;;;;;;;1.60;1.10;;;21.80;48.60;;;;;;5122598;27;45397;-67
2023/06/14 09:16:14;;;;;;;5.07;1.17;;;21.90;42.20;;;;;;5118339;27;45423;-67
2023/06/14 09:18:44;;;;;;;5.45;1.25;;;21.80;41.50;;;;;;5119433;27;47309;-67
2023/06/14 09:21:13;;;;;;;3.58;1.08;;;21.80;46.50;;;;;;5114077;27;45471;-66
2023/06/14 09:23:41;;;;;;;2.20;1.00;;;21.70;47.10;;;;;;5109902;27;45253;-68
2023/06/14 09:26:09;;;;;;;1.40;1.00;;;21.80;43.50;;;;;;5109870;27;45412;-67
2023/06/14 09:28:36;;;;;;;4.20;1.25;;;21.90;48.80;;;;;;5119326;27;47380;-66
2023/06/14 09:31:03;;;;;;;2.83;1.40;;;21.80;43.10;;;;;;5122614;27;45268;-68
2023/06/14 09:33:31;;;;;;;4.53;1.10;;;21.90;47.70;;;;;;5118115;27;45433;-67
2023/06/14 09:35:58;;;;;;;2.30;1.35;;;21.70;44.60;;;;;;5121541;27;45340;-67
2023/06/14 09:38:27;;;;;;;7.63;1.05;;;21.70;44.30;;;;;;5116835;27;45476;-67
2023/06/14 09:40:56;;;;;;;1.58;1.17;;;21.70;44.90;;;;;;5120167;27;45340;-67
2023/06/14 09:43:26;;;;;;;2.17;1.27;;;21.70;48.30;;;;;;5113221;27;45427;-67
2023/06/14 09:45:53;;;;;;;1.63;1.00;;;21.80;43.70;;;;;;5126002;27;45294;-67
2023/06/14 09:48:19;;;;;;;2.42;1.13;;;21.70;43.80;;;;;;5124467;27;45453;-67
2023/06/14 09:50:48;;;;;;;3.42;1.30;;;21.70;45.10;;;;;;5115444;27;45291;-67
2023/06/14 09:53:16;;;;;;;1.02;0.82;;;21.70;43.20;;;;;;5125202;27;45445;-67
2023/06/14 09:55:46;;;;;;;6.43;1.20;;;21.80;46.80;;;;;;5124853;27;45493;-66
2023/06/14 09:58:15;;;;;;;0.85;0.80;;;21.80;44.30;;;;;;5116742;27;46411;-66
2023/06/14 10:00:43;;;;;;;2.30;1.00;;;21.70;45.20;;;;;;5127156;27;45332;-67
2023/06/14 10:03:14;;;;;;;4.38;1.30;;;21.70;48.40;;;;;;5116263;27;45469;-68
2023/06/14 10:05:44;;;;;;;6.18;1.00;;;21.70;46.80;;;;;;5123886;27;45585;-67
2023/06/14 10:08:16;;;;;;;2.15;1.23;;;21.70;45.80;;;;;;5121837;27;46074;-67
2023/06/14 10:10:44;;;;;;;1.70;0.95;;;21.70;45.90;;;;;;5109297;27;45803;-67
2023/06/14 10:13:12;;;;;;;2.20;1.20;;;21.60;46.20;;;;;;5123074;27;45424;-67
2023/06/14 10:15:49;;;;;;;1.83;1.08;;;21.60;48.00;;;;;;5120232;27;45400;-67
2023/06/14 10:18:23;;;;;;;2.10;1.15;;;21.60;45.10;;;;;;5121060;27;48082;-68
2023/06/14 10:20:59;;;;;;;2.63;1.40;;;21.50;45.10;;;;;;5119716;27;45288;-66
2023/06/14 10:23:30;;;;;;;6.13;1.20;;;21.40;45.60;;;;;;5123592;27;45428;-67
2023/06/14 10:26:00;;;;;;;1.90;1.02;;;21.50;45.20;;;;;;5118238;27;45552;-67
2023/06/14 10:28:27;;;;;;;2.90;1.30;;;21.70;48.40;;;;;;5123893;27;45487;-66
2023/06/14 10:31:07;;;;;;;3.22;1.30;;;21.70;44.30;;;;;;5123420;27;45419;-67
2023/06/14 10:33:34;;;;;;;2.53;1.20;;;21.60;44.70;;;;;;5123471;27;45473;-67
2023/06/14 10:36:27;;;;;;;4.35;1.48;;;21.70;48.50;;;;;;5125175;27;45419;-67
2023/06/14 10:39:02;;;;;;;1.90;1.13;;;21.70;43.10;;;;;;5115966;27;46714;-67
2023/06/14 10:41:31;;;;;;;6.10;1.10;;;21.40;44.80;;;;;;5118796;27;45386;-67
2023/06/14 10:44:33;;;;;;;1.83;1.10;;;21.50;44.40;;;;;;5123628;27;45365;-67
2023/06/14 10:47:01;;;;;;;2.90;1.10;;;21.60;45.00;;;;;;5123712;27;45312;-67
2023/06/14 10:49:42;;;;;;;3.22;1.27;;;21.50;44.80;;;;;;5124395;27;46397;-67
2023/06/14 10:52:16;;;;;;;3.38;1.65;;;21.40;44.90;;;;;;5117659;27;45353;-68
2023/06/14 10:55:00;;;;;;;3.45;1.30;;;21.50;45.30;;;;;;5124524;27;45327;-67
2023/06/14 10:57:29;;;;;;;2.45;1.05;;;21.80;47.50;;;;;;5114755;27;45394;-67
2023/06/14 10:59:57;;;;;;;1.70;0.95;;;21.90;47.70;;;;;;5113010;27;47754;-66
2023/06/14 11:03:10;;;;;;;9.20;1.25;;;21.90;47.00;;;;;;5122975;27;45254;-67
2023/06/14 11:05:50;;;;;;;2.33;1.30;;;21.90;47.60;;;;;;5121960;27;45442;-67
2023/06/14 11:08:28;;;;;;;8.15;1.50;;;21.90;46.40;;;;;;5122972;27;45514;-67
2023/06/14 11:10:58;;;;;;;2.08;1.35;;;21.80;43.70;;;;;;5124801;27;48026;-66
2023/06/14 11:13:28;;;;;;;2.42;1.30;;;21.70;45.10;;;;;;5121558;27;45501;-68
2023/06/14 11:15:57;;;;;;;1.67;0.95;;;21.80;47.70;;;;;;5121117;27;45300;-67
2023/06/14 11:18:27;;;;;;;2.50;1.05;;;21.90;48.80;;;;;;5117312;27;45361;-67
2023/06/14 11:20:53;;;;;;;1.77;1.10;;;22.00;48.90;;;;;;5124286;27;45342;-67
2023/06/14 11:23:22;;;;;;;1.45;1.00;;;22.00;43.30;;;;;;5123380;27;45263;-67
2023/06/14 11:25:51;;;;;;;5.00;1.33;;;21.90;45.50;;;;;;5115919;27;45457;-67
2023/06/14 11:28:19;;;;;;;8.77;1.10;;;22.00;43.70;;;;;;5123119;27;45255;-67
2023/06/14 11:30:47;;;;;;;2.08;1.02;;;22.00;47.70;;;;;;5124078;27;46327;-67
2023/06/14 11:33:18;;;;;;;3.53;1.35;;;22.00;44.50;;;;;;5115183;27;45427;-67
2023/06/14 11:35:45;;;;;;;1.73;1.10;;;22.00;45.90;;;;;;5119522;27;45361;-67
2023/06/14 11:38:12;;;;;;;1.95;0.93;;;22.10;48.30;;;;;;5117764;27;45456;-67
2023/06/14 11:40:39;;;;;;;4.22;1.08;;;22.10;46.80;;;;;;5118191;27;47487;-67
2023/06/14 11:43:06;;;;;;;2.10;1.20;;;22.10;45.30;;;;;;5105487;27;45266;-67
2023/06/14 11:45:33;;;;;;;2.63;1.17;;;22.10;48.30;;;;;;5114574;27;45340;-67
2023/06/14 11:48:02;;;;;;;2.28;1.40;;;22.20;48.70;;;;;;5116978;27;45234;-67
2023/06/14 11:50:29;;;;;;;4.32;1.20;;;22.20;45.70;;;;;;5122611;27;45436;-67
2023/06/14 11:52:56;;;;;;;1.60;1.08;;;22.20;45.90;;;;;;5116755;27;45441;-67
2023/06/14 11:55:23;;;;;;;5.03;1.27;;;22.20;47.70;;;;;;5112263;27;45331;-67
2023/06/14 11:57:50;;;;;;;5.22;1.30;;;22.20;45.80;;;;;;5111809;27;45578;-67
2023/06/14 12:00:21;;;;;;;1.25;1.13;;;22.20;46.80;;;;;;5111707;27;46390;-67
2023/06/14 12:02:55;;;;;;;3.50;1.38;;;22.30;49.40;;;;;;5121866;27;45323;-67
2023/06/14 12:05:23;;;;;;;3.00;1.27;;;22.40;46.90;;;;;;5123252;27;45398;-67
2023/06/14 12:07:53;;;;;;;2.88;1.20;;;22.30;46.10;;;;;;5111748;27;45270;-67
2023/06/14 12:10:20;;;;;;;4.10;1.35;;;22.20;47.00;;;;;;5113110;27;45453;-67
2023/06/14 12:12:47;;;;;;;5.47;1.27;;;22.20;46.20;;;;;;5116018;27;46418;-66
2023/06/14 12:15:13;;;;;;;2.20;1.30;;;22.30;46.40;;;;;;5119722;27;45491;-67
2023/06/14 12:17:43;;;;;;;1.58;1.20;;;22.30;46.90;;;;;;5115181;27;45278;-67
2023/06/14 12:20:13;;;;;;;2.63;1.60;;;22.20;47.20;;;;;;5114751;27;47932;-67
2023/06/14 12:22:51;;;;;;;2.80;1.13;;;22.30;46.60;;;;;;5119437;27;45983;-67
2023/06/14 12:25:27;;;;;;;3.00;1.40;;;22.30;46.60;;;;;;5112723;27;45563;-67
2023/06/14 12:27:54;;;;;;;3.10;1.45;;;22.40;46.40;;;;;;5115934;27;45355;-67
2023/06/14 12:30:21;;;;;;;4.90;0.80;;;22.40;49.40;;;;;;5121523;27;47486;-67
2023/06/14 12:32:51;;;;;;;5.05;1.13;;;22.30;50.80;;;;;;5123310;27;45415;-67
2023/06/14 12:35:18;;;;;;;1.15;0.90;;;22.30;47.30;;;;;;5119088;27;45333;-67
2023/06/14 12:37:46;;;;;;;2.42;1.42;;;22.40;46.10;;;;;;5114460;27;45257;-67
2023/06/14 12:40:13;;;;;;;1.30;0.93;;;22.60;49.30;;;;;;5113001;27;47574;-67
2023/06/14 12:42:41;;;;;;;5.63;1.35;;;22.40;49.60;;;;;;5123367;27;45418;-67
2023/06/14 12:45:08;;;;;;;3.42;1.10;;;22.70;45.90;;;;;;5114173;27;45395;-67
2023/06/14 12:47:35;;;;;;;4.32;1.20;;;22.60;45.50;;;;;;5114737;27;45285;-67
2023/06/14 12:50:02;;;;;;;1.88;1.15;;;22.70;45.90;;;;;;5122690;27;47262;-67
2023/06/14 12:52:30;;;;;;;1.50;1.10;;;22.70;46.00;;;;;;5119837;27;45438;-67